OKBO2: North Canadian River at Britton Rd at OKC, OK

Data processed at Sat Mar 10 2018 23:24


All information presented herein is the property of the government of the United States of America and may be revised or deleted at any time without prior notice.
Dissemination of this information without the expressed written consent of the Public Affairs Office, Tulsa District U.S. Army Corps of Engineers is strictly prohibited.
These data are gathered electronically and, as presented, have not undergone any form of quality control. These data are not guaranteed to be valid or correct.
Go to home page.
Go to station list.

Upstream stations:

Downstream station:
Previous Day
Next Day
Current Day
    
SHEF ID:       OKBO2     North Canadian River at Britton
STATION TYPE:  

                STAGE  RIV-FLOW  WTR-TEMP   DIS-OXY   CONDUCT  BAT-LOAD
                   ft       cfs         F      mg/l   umho/cm      volt
              Ccp-Rev   Ccp-Rev   Ccp-Rev   Ccp-Rev   Ccp-Rev   Ccp-Rev
(US/Central)
03/08 00:00      6.45        48     49.95     10.03       719     12.83
03/08 01:00      6.45        48     49.08      9.87       721     12.77
03/08 02:00      6.45        48     48.04      9.66       723     12.71
03/08 03:00      6.46        49     47.23      9.54       724     12.71
03/08 04:00      6.47        50     46.49      9.49       725     12.65
03/08 05:00      6.48        52     45.79      9.40       726     12.65
03/08 06:00      6.50        55     45.01      9.48       727     12.60
03/08 07:00      6.51        56     44.56      9.49       728     12.60
03/08 08:00      6.52        57     44.11      9.54       730     12.89
03/08 09:00      6.53        59     44.46      9.88       730     14.53
03/08 10:00      6.51        56     45.61     10.40       729     14.41
03/08 11:00      6.49        53     47.30     11.09       729     13.88
03/08 12:00      6.50        55     49.23     11.71       728     13.83
03/08 13:00      6.52        57     52.02     12.62       728     13.77
03/08 14:00      6.51        56     53.42     13.05       727     13.71
03/08 15:00      6.50        55     56.03     13.73       728     13.59
03/08 16:00      6.50        55     57.34     14.14       731     13.53
03/08 17:00      6.51        56     58.05     14.13       735     13.53
03/08 18:00      6.50        55     58.06     13.81       739     13.59
03/08 19:00      6.52        57     57.60     13.17       750     13.36
03/08 20:00      6.49        53     57.09     12.37       768     13.07
03/08 21:00      6.51        56     56.35     11.55       790     12.95
03/08 22:00      6.52        57     55.17     10.93       819     12.89
03/08 23:00      6.53        59     53.85     10.42       847     12.89